Latest Coastal Weather Observations for Williamtown

IDN60701

Issued at 3:41 am EDT Saturday 25 November 2017 (issued every 10 minutes, with the page automatically refreshed every 10 minutes)

About coastal observations | Map of coastal stations | Coastal observations for NSW | Marine services | Other Formats
Station Details ID: 061078 Name: WILLIAMTOWN RAAF Lat: -32.79 Lon: 151.84 Height: 7.5 m
Data from the previous 72 hours. | See also: Recent months at Williamtown
Date/Time
EDT
Temp
°C
Wind Pressure Rain since
9am
mm
Weather Cloud Vis
km
Sea
Height
m
Swell
Dir  Spd
kts
Gust
kts
hPa Trend Height
m
Period
s
Dir
25/03:30am 18.0 ENE 4 6 1015.7 - 0.0 - Clear 10 - - - -
25/03:00am 18.2 ENE 5 7 1015.7 R 0.0 - - 10 - - - -
25/02:30am 18.0 ENE 5 6 1015.7 - 0.0 - - 10 - - - -
25/02:00am 18.2 ENE 5 7 1015.8 - 0.0 - - 10 - - - -
25/01:30am 18.2 ENE 4 5 1015.8 - 0.0 - - 10 - - - -
25/01:00am 18.4 ENE 4 6 1016.0 - 0.0 - - 10 - - - -
25/12:30am 18.8 ENE 6 8 1016.3 - 0.0 - - 10 - - - -
25/12:00am 18.9 E 5 7 1016.4 R 0.0 - - 10 - - - -
 
Date/Time
EDT
Temp
°C
Wind Pressure Rain since
9am
mm
Weather Cloud Vis
km
Sea
Height
m
Swell
Dir  Spd
kts
Gust
kts
hPa Trend Height
m
Period
s
Dir
24/11:30pm 19.1 ENE 4 5 1016.3 - 0.0 - - 10 - - - -
24/11:00pm 19.7 ENE 5 7 1016.3 - 0.0 - - 10 - - - -
24/10:30pm 20.2 E 6 7 1016.2 - 0.0 - - 10 - - - -
24/10:00pm 20.7 NE 5 6 1016.4 - 0.0 - - 10 - - - -
24/09:30pm 21.1 ENE 6 8 1016.2 - 0.0 - - 10 - - - -
24/09:00pm 21.3 ENE 7 9 1015.9 F 0.0 - - 10 - - - -
24/08:30pm 21.7 ENE 8 10 1015.6 - 0.0 - - 10 - - - -
24/08:00pm 22.1 ENE 9 14 1015.4 - 0.0 - - 10 - - - -
24/07:30pm 22.6 ENE 11 15 1015.1 - 0.0 - - 10 - - - -
24/07:00pm 23.0 ENE 10 15 1014.7 - 0.0 - - 10 - - - -
24/06:30pm 23.6 ENE 10 14 1014.5 - 0.0 - - 10 - - - -
24/06:00pm 24.6 ENE 9 12 1014.5 S 0.0 - - 10 - - - -
24/05:30pm 26.2 ENE 12 17 1014.3 - 0.0 - - 10 - - - -
24/05:00pm 27.4 E 12 16 1014.2 - 0.0 - - 10 - - - -
24/04:30pm 27.5 ENE 14 19 1013.8 - 0.0 - - 10 - - - -
24/04:00pm 28.3 ENE 12 17 1014.2 - 0.0 - - 10 - - - -
24/03:30pm 28.1 ENE 11 17 1014.4 - 0.0 - - 10 - - - -
24/03:00pm 28.6 E 11 16 1014.6 F 0.0 - Mostly clear 10 - - - -
24/02:30pm 28.8 E 10 15 1015.1 - 0.0 - Mostly clear 10 - - - -
24/02:00pm 28.0 E 10 15 1015.3 - 0.0 - Mostly clear 10 - - - -
24/01:30pm 27.4 ESE 11 16 1015.5 - 0.0 - Mostly clear 10 - - - -
24/01:00pm 26.4 ESE 11 14 1016.0 - 0.0 - Mostly clear 10 - - - -
24/12:30pm 26.8 SE 12 15 1016.1 - 0.0 - Mostly clear 10 - - - -
24/12:00pm 25.2 SE 10 14 1016.4 R 0.0 - Mostly clear 10 - - - -
24/11:30am 25.7 SE 9 13 1016.6 - 0.0 - Mostly clear 10 - - - -
24/11:00am 26.4 SE 9 12 1016.7 - 0.0 - Mostly clear 10 - - - -
24/10:30am 25.7 ESE 5 6 1016.7 - 0.0 - Mostly clear 10 - - - -
24/10:00am 24.4 WNW 3 6 1016.8 - 0.0 - - 10 - - - -
24/09:30am 23.1 NNW 3 6 1016.9 - 0.0 - - 10 - - - -
24/09:00am 22.0 NW 3 6 1017.0 R 0.0 - - 10 - - - -
24/08:30am 20.8 NW 5 7 1017.1 - 0.0 - - 10 - - - -
24/08:00am 19.6 NW 6 7 1016.8 - 0.0 - - 10 - - - -
24/07:30am 18.3 NNW 3 5 1016.6 - 0.0 - - 10 - - - -
24/07:00am 16.7 CALM 0 0 1016.3 - 0.0 - - 10 - - - -
24/06:30am 15.6 CALM 0 0 1016.2 - 0.0 - - 10 - - - -
24/06:00am 15.4 CALM 0 0 1015.9 R 0.0 - - 10 - - - -
24/05:30am 15.4 NNE 1 4 1015.6 - 0.0 - - 10 - - - -
24/05:00am 15.1 CALM 0 0 1015.2 - 0.0 - - 10 - - - -
24/04:30am 15.1 CALM 0 3 1014.9 - 0.0 - - 10 - - - -
24/04:00am 15.1 N 2 5 1014.9 - 0.0 - - 10 - - - -
24/03:30am 15.7 CALM 0 0 1015.0 - 0.0 - - 10 - - - -
24/03:00am 16.4 N 1 4 1015.2 R 0.0 - - 10 - - - -
24/02:30am 17.8 NE 3 5 1015.1 - 0.0 - - 10 - - - -
24/02:00am 18.1 NE 5 6 1015.2 - 0.0 - - 10 - - - -
24/01:30am 18.5 NE 5 6 1015.4 - 0.0 - - 10 - - - -
24/01:00am 18.8 NE 6 8 1015.5 - 0.0 - - 10 - - - -
24/12:30am 19.0 NE 7 9 1015.7 - 0.0 - - 10 - - - -
24/12:00am 19.4 NE 7 10 1015.9 F 0.0 - - 10 - - - -
 
Date/Time
EDT
Temp
°C
Wind Pressure Rain since
9am
mm
Weather Cloud Vis
km
Sea
Height
m
Swell
Dir  Spd
kts
Gust
kts
hPa Trend Height
m
Period
s
Dir
23/11:30pm 19.5 NE 7 11 1016.0 - 0.0 - - 10 - - - -
23/11:00pm 19.7 NE 8 11 1016.0 - 0.0 - - 10 - - - -
23/10:30pm 20.0 NE 8 11 1016.1 - 0.0 - - 10 - - - -
23/10:00pm 20.3 NE 8 12 1016.1 - 0.0 - - 10 - - - -
23/09:30pm 20.7 NE 9 14 1016.0 - 0.0 - - 10 - - - -
23/09:00pm 21.0 NE 9 13 1015.8 R 0.0 - - 10 - - - -
23/08:30pm 21.3 NE 8 11 1015.6 - 0.0 - - 10 - - - -
23/08:00pm 21.5 NE 8 12 1015.2 - 0.0 - - 10 - - - -
23/07:30pm 22.0 ENE 9 13 1014.8 - 0.0 - - 10 - - - -
23/07:00pm 23.3 ENE 11 15 1014.3 - 0.0 - Mostly clear 10 - - - -
23/06:30pm 24.1 ENE 12 18 1014.0 - 0.0 - Mostly clear 10 - - - -
23/06:00pm 24.6 ENE 14 18 1013.8 F 0.0 - Mostly clear 10 - - - -
23/05:30pm 24.5 ENE 15 19 1013.6 - 0.0 - Mostly clear 10 - - - -
23/05:00pm 25.4 ENE 13 17 1013.6 - 0.0 - Mostly clear 10 - - - -
23/04:30pm 25.7 ENE 13 19 1013.9 - 0.0 - Mostly clear 10 - - - -
23/04:00pm 25.4 ENE 15 20 1014.1 - 0.0 - Mostly clear 10 - - - -
23/03:30pm 26.2 ENE 11 18 1014.0 - 0.0 - Mostly clear 10 - - - -
23/03:00pm 25.9 ESE 14 20 1014.4 F 0.0 - Mostly clear 10 - - - -
23/02:30pm 24.9 E 13 20 1014.9 - 0.0 - Mostly clear 10 - - - -
23/02:00pm 25.2 ESE 14 19 1015.3 - 0.0 - Partly cloudy 10 - - - -
23/01:30pm 24.7 ESE 13 18 1015.7 - 0.0 - Partly cloudy 10 - - - -
23/01:00pm 23.9 SE 14 17 1016.2 - 0.0 - Partly cloudy 10 - - - -
23/12:30pm 25.1 SE 15 18 1016.5 - 0.0 - Partly cloudy 10 - - - -
23/12:00pm 24.4 ESE 12 16 1016.6 F 0.0 - Cloudy 10 - - - -
23/11:30am 24.3 SE 13 17 1016.9 - 0.0 - Partly cloudy 10 - - - -
23/11:00am 24.2 SE 7 13 1017.2 - 0.0 - Partly cloudy 10 - - - -
23/10:30am 23.3 NE 5 8 1017.4 - 0.0 - Partly cloudy 10 - - - -
23/10:00am 22.9 N 7 9 1017.5 - 0.0 - Partly cloudy 10 - - - -
23/09:30am 22.5 NE 7 9 1017.5 - 0.0 - Mostly clear 10 - - - -
23/09:00am 22.3 ENE 7 10 1017.7 R 0.0 - Mostly clear 10 - - - -
23/08:30am 21.6 NNE 5 7 1017.6 - 0.0 - Mostly clear 10 - - - -
23/08:00am 20.0 NE 2 4 1017.6 - 0.0 - Mostly clear 10 - - - -
23/07:30am 19.1 E 3 4 1017.3 - 0.0 - Mostly clear 10 - - - -
23/07:00am 17.1 CALM 0 0 1017.2 - 0.0 - Mostly clear 10 - - - -
23/06:30am 14.8 CALM 0 0 1017.0 - 0.0 - - 10 - - - -
23/06:00am 13.9 CALM 0 0 1016.6 F 0.0 - - 10 - - - -
23/05:30am 13.7 CALM 0 0 1016.4 - 0.0 - - 10 - - - -
23/05:00am 13.4 CALM 0 0 1016.2 - 0.0 - - 10 - - - -
23/04:30am 14.9 CALM 0 0 1016.0 - 0.0 - - 10 - - - -
23/04:00am 15.9 ENE 4 4 1016.1 - 0.0 - - 10 - - - -
23/03:30am 16.3 NE 4 5 1016.1 - 0.0 - - 10 - - - -
23/03:00am 16.2 CALM 0 5 1016.5 F 0.0 - - 10 - - - -
23/02:30am 15.5 CALM 0 0 1016.5 - 0.0 - - 10 - - - -
23/02:00am 16.7 E 3 4 1016.7 - 0.0 - - 10 - - - -
23/01:30am 17.1 E 4 5 1016.9 - 0.0 - - 10 - - - -
23/01:00am 17.0 ENE 4 5 1017.1 - 0.0 - - 10 - - - -
23/12:30am 17.6 E 5 6 1017.4 - 0.0 - - 10 - - - -
23/12:00am 17.9 E 5 6 1017.6 F 0.0 - - 10 - - - -
 
Date/Time
EDT
Temp
°C
Wind Pressure Rain since
9am
mm
Weather Cloud Vis
km
Sea
Height
m
Swell
Dir  Spd
kts
Gust
kts
hPa Trend Height
m
Period
s
Dir
22/11:30pm 18.0 E 5 6 1017.6 - 0.0 - - 10 - - - -
22/11:00pm 18.1 E 3 5 1017.9 - 0.0 - - 10 - - - -
22/10:30pm 18.4 E 5 7 1018.1 - 0.0 - - 10 - - - -
22/10:00pm 18.2 ESE 5 7 1018.2 - 0.0 - - 10 - - - -
22/09:30pm 18.7 E 5 7 1018.3 - 0.0 - Partly cloudy 10 - - - -
22/09:00pm 18.9 E 5 7 1018.3 F 0.0 - Partly cloudy 10 - - - -
22/08:30pm 18.9 ENE 6 8 1018.2 - 0.0 - Partly cloudy 10 - - - -
22/08:00pm 19.3 E 7 10 1018.1 - 0.0 - Mostly clear 10 - - - -
22/07:30pm 19.7 E 8 11 1018.0 - 0.0 - Mostly clear 10 - - - -
22/07:00pm 20.0 ESE 10 14 1017.8 - 0.0 - Mostly clear 10 - - - -
22/06:30pm 20.9 E 10 15 1017.6 - 0.0 - Mostly clear 10 - - - -
22/06:00pm 21.4 ESE 11 15 1017.3 F 0.0 - Mostly cloudy 10 - - - -
22/05:30pm 21.3 SE 13 17 1017.2 - 0.0 - Mostly clear 10 - - - -
22/05:00pm 21.2 ESE 13 17 1017.5 - 0.0 - Mostly clear 10 - - - -
22/04:30pm 21.2 ESE 11 14 1017.5 - 0.0 - Mostly clear 10 - - - -
22/04:00pm 21.8 ESE 12 16 1017.7 - 0.0 - Mostly clear 10 - - - -
22/03:30pm 21.8 ESE 13 16 1017.9 - 0.0 - Partly cloudy 10 - - - -
22/03:00pm 21.9 ESE 13 18 1018.3 S 0.0 - Cloudy 10 - - - -
22/02:30pm 21.8 ESE 13 18 1018.5 - 0.0 - Partly cloudy 10 - - - -
22/02:00pm 23.0 ESE 13 19 1018.8 - 0.0 - Partly cloudy 10 - - - -
22/01:30pm 22.7 SE 12 18 1019.1 - 0.0 - Partly cloudy 10 - - - -
22/01:00pm 22.8 ESE 12 17 1019.4 - 0.0 - Partly cloudy 10 - - - -
22/12:30pm 22.9 SE 12 19 1019.7 - 0.0 - Partly cloudy 10 - - - -
22/12:00pm 22.8 ESE 11 17 1019.8 S 0.0 - Partly cloudy 10 - - - -
22/11:30am 22.8 SE 13 17 1020.1 - 0.0 - Partly cloudy 10 - - - -
22/11:00am 22.5 ESE 12 17 1020.2 - 0.0 - Partly cloudy 10 - - - -
22/10:30am 22.3 SE 10 16 1020.3 - 0.0 - Partly cloudy 10 - - - -
22/10:00am 22.2 SE 10 14 1020.3 - 0.0 - Partly cloudy 10 - - - -
22/09:30am 21.6 SE 11 15 1020.4 - 0.0 - Partly cloudy 10 - - - -
22/09:00am 21.5 ESE 9 13 1020.5 F 0.0 - Mostly clear 10 - - - -
22/08:30am 21.0 ESE 7 13 1020.5 - 0.0 - Partly cloudy 10 - - - -
22/08:00am 20.5 ESE 5 9 1020.4 - 0.0 - Mostly clear 10 - - - -
22/07:30am 18.5 WNW 5 6 1020.3 - 0.0 - Mostly clear 10 - - - -
22/07:00am 16.9 CALM 0 0 1020.2 - 0.0 - Mostly clear 10 - - - -
22/06:30am 15.1 CALM 0 0 1020.1 - 0.0 - - 10 - - - -
22/06:00am 14.4 CALM 0 0 1019.8 F 0.0 - - 10 - - - -
22/05:30am 14.4 CALM 0 0 1019.5 - 0.0 - - 10 - - - -
22/05:00am 14.3 CALM 0 0 1019.5 - 0.0 - - 10 - - - -
22/04:30am 15.0 CALM 0 0 1019.6 - 0.0 - Partly cloudy 10 - - - -
22/04:00am 15.5 CALM 0 0 1019.5 - 0.0 - Partly cloudy 10 - - - -

Other Formats:

Comma delimited format used in spreadsheet applications
http://www.bom.gov.au/fwo/IDN60701/IDN60701.94776.axf

JavaScript Object Notation format (JSON) in row-major order
http://www.bom.gov.au/fwo/IDN60701/IDN60701.94776.json